»·PEaware :: N58EU KPSP-KSEZ

N58EU :: KPSP-KSEZ

FLIGHT INFORMATION

Flight Status: Arrived
Operator: Privately registered:
United States
More flights under this callsign
Pilot: Ryan K. (15391)
Aircraft: BEECH AIRCRAFT BARON
(BE58)
More flights by this aircraft type
Origin: KPSP Palm Springs Intl
United States
Destination: KSEZ Sedona
United States
More flights between these airports :: More routes between these airports
Route: VFR
File this flight plan on PilotEdge
Remarks:
Altitude:
(Current/Filed)
9,500ft
Speed:
(Current/Filed)
180kts
Departed: 13-Sep-17 11:02 AM
Arrived: 13-Sep-17 12:30 PM
Distance/Time
Traveled:
242nm/1:28
Distance/Time
To Go:
Arrived

Flight Plot

Page will automatically refresh every two minutes.

Flight plan parsing failed; only flown route is shown


Map Options




Map Legend


Flown Route
Filed Route
Departure Airport
Arrival Airport
Navaid (VOR, NDB)
Fix

Horizontal Profiles

Position Reports

Time Latitude Longitude Heading Altitude Ground
Speed
13-Sep-17 10:44 33.828425 -116.512253 90 480ft 0kts
13-Sep-17 10:45 33.828425 -116.512253 90 480ft 0kts
13-Sep-17 10:46 33.828425 -116.512253 90 480ft 0kts
13-Sep-17 10:47 33.828425 -116.512252 90 480ft 0kts
13-Sep-17 10:48 33.828425 -116.512252 89 480ft 0kts
13-Sep-17 10:49 33.828425 -116.512252 89 480ft 0kts
13-Sep-17 10:50 33.828425 -116.512252 89 480ft 0kts
13-Sep-17 10:51 33.828425 -116.512252 89 480ft 0kts
13-Sep-17 10:52 33.828425 -116.512252 89 480ft 0kts
13-Sep-17 10:53 33.828425 -116.512252 89 480ft 0kts
13-Sep-17 10:54 33.828425 -116.512252 89 480ft 0kts
13-Sep-17 10:55 33.828425 -116.512252 89 480ft 0kts
13-Sep-17 10:56 33.828425 -116.512252 89 480ft 0kts
13-Sep-17 10:57 33.828425 -116.512252 89 480ft 0kts
13-Sep-17 10:58 33.828461 -116.512122 43 480ft 5kts
13-Sep-17 10:59 33.828666 -116.511776 88 480ft 0kts
13-Sep-17 11:00 33.828139 -116.508324 143 480ft 15kts
13-Sep-17 11:01 33.823716 -116.504378 142 480ft 22kts
13-Sep-17 11:02 33.818626 -116.499879 143 480ft 11kts
13-Sep-17 11:03 33.818211 -116.499049 18 480ft 0kts
13-Sep-17 11:04 33.818212 -116.499049 19 480ft 0kts
13-Sep-17 11:05 33.818573 -116.498534 71 480ft 12kts
13-Sep-17 11:06 33.833726 -116.511480 322 762ft 118kts
13-Sep-17 11:07 33.859661 -116.536100 320 1813ft 121kts
13-Sep-17 11:08 33.886591 -116.532897 72 2693ft 130kts
13-Sep-17 11:09 33.893409 -116.489717 80 3572ft 134kts
13-Sep-17 11:10 33.894740 -116.443869 86 4448ft 137kts
13-Sep-17 11:11 33.896123 -116.405213 86 5456ft 144kts
13-Sep-17 11:12 33.907711 -116.360178 57 6659ft 146kts
13-Sep-17 11:13 33.924580 -116.316399 89 7838ft 150kts
13-Sep-17 11:14 33.933051 -116.266854 74 9044ft 153kts
13-Sep-17 11:15 33.949592 -116.216437 72 9507ft 184kts
13-Sep-17 11:16 33.970872 -116.156671 70 9511ft 201kts
13-Sep-17 11:17 33.993291 -116.095438 69 9566ft 203kts
13-Sep-17 11:18 34.015649 -116.034510 69 9763ft 197kts
13-Sep-17 11:19 34.036760 -115.977274 70 10530ft 185kts
13-Sep-17 11:20 34.057016 -115.921993 70 11321ft 178kts
13-Sep-17 11:21 34.077208 -115.866271 71 11670ft 195kts
13-Sep-17 11:22 34.099459 -115.805000 70 11635ft 204kts
13-Sep-17 11:23 34.127174 -115.752398 45 11234ft 219kts
13-Sep-17 11:24 34.170076 -115.704944 46 10398ft 203kts
13-Sep-17 11:25 34.211262 -115.658740 46 9650ft 204kts
13-Sep-17 11:26 34.252627 -115.612108 46 9630ft 207kts
13-Sep-17 11:27 34.294724 -115.564665 46 9629ft 207kts
13-Sep-17 11:28 34.340131 -115.522915 22 9633ft 211kts
13-Sep-17 11:29 34.395626 -115.499063 21 9630ft 212kts
13-Sep-17 11:30 34.450915 -115.475158 21 9630ft 212kts
13-Sep-17 11:31 34.506041 -115.451161 21 9630ft 212kts
13-Sep-17 11:32 34.561518 -115.426961 21 9625ft 212kts
13-Sep-17 11:33 34.616869 -115.402789 21 9612ft 213kts
13-Sep-17 11:34 34.671874 -115.378724 21 9598ft 213kts
13-Sep-17 11:35 34.727260 -115.354462 21 9584ft 213kts
13-Sep-17 11:36 34.778857 -115.325203 68 9539ft 202kts
13-Sep-17 11:37 34.782036 -115.259892 95 9521ft 194kts
13-Sep-17 11:38 34.780981 -115.194420 96 9504ft 194kts
13-Sep-17 11:39 34.780018 -115.132954 97 10242ft 176kts
13-Sep-17 11:40 34.778925 -115.074796 97 11027ft 170kts
13-Sep-17 11:41 34.777699 -115.016773 97 11506ft 183kts
13-Sep-17 11:42 34.776318 -114.951782 96 11499ft 197kts
13-Sep-17 11:43 34.775040 -114.884797 96 11497ft 199kts
13-Sep-17 11:44 34.773672 -114.817416 96 11497ft 199kts
13-Sep-17 11:45 34.772261 -114.750668 96 11497ft 199kts
13-Sep-17 11:46 34.770794 -114.683299 96 11497ft 199kts
13-Sep-17 11:47 34.769295 -114.616085 96 11497ft 199kts
13-Sep-17 11:48 34.767834 -114.552115 96 11497ft 199kts
13-Sep-17 11:49 34.766258 -114.484808 96 11497ft 199kts
13-Sep-17 11:50 34.764646 -114.417377 96 11498ft 200kts
13-Sep-17 11:51 34.762998 -114.350080 96 11497ft 201kts
13-Sep-17 11:52 34.761326 -114.282821 97 11496ft 201kts
13-Sep-17 11:53 34.759589 -114.214692 97 11499ft 201kts
13-Sep-17 11:54 34.757829 -114.146970 97 11512ft 201kts
13-Sep-17 11:55 34.756019 -114.078946 97 11523ft 201kts
13-Sep-17 11:56 34.754177 -114.011138 97 11534ft 201kts
13-Sep-17 11:57 34.752305 -113.943399 97 11564ft 200kts
13-Sep-17 11:58 34.750395 -113.875856 97 11606ft 200kts
13-Sep-17 11:59 34.748440 -113.808167 97 11649ft 200kts
13-Sep-17 12:00 34.746450 -113.740501 97 11686ft 201kts
13-Sep-17 12:01 34.744401 -113.672329 97 11686ft 202kts
13-Sep-17 12:02 34.742348 -113.604934 97 11686ft 202kts
13-Sep-17 12:03 34.740229 -113.536650 97 11686ft 202kts
13-Sep-17 12:04 34.738075 -113.468479 97 11686ft 202kts
13-Sep-17 12:05 34.735873 -113.400069 97 11686ft 202kts
13-Sep-17 12:06 34.733665 -113.332593 97 11685ft 202kts
13-Sep-17 12:07 34.731686 -113.274285 97 11267ft 206kts
13-Sep-17 12:08 34.729480 -113.207111 97 10562ft 197kts
13-Sep-17 12:09 34.727185 -113.141964 97 9979ft 197kts
13-Sep-17 12:10 34.724836 -113.076035 96 9405ft 200kts
13-Sep-17 12:11 34.722454 -113.009209 95 8821ft 199kts
13-Sep-17 12:12 34.720076 -112.942682 95 8220ft 195kts
13-Sep-17 12:13 34.717667 -112.877045 94 7827ft 198kts
13-Sep-17 12:14 34.715125 -112.808677 94 7821ft 206kts
13-Sep-17 12:15 34.712496 -112.737536 93 7523ft 208kts
13-Sep-17 12:16 34.709877 -112.667445 94 7527ft 208kts
13-Sep-17 12:17 34.707167 -112.597608 94 7527ft 207kts
13-Sep-17 12:18 34.704430 -112.528061 94 7528ft 206kts
13-Sep-17 12:19 34.706863 -112.459194 76 7529ft 207kts
13-Sep-17 12:20 34.721472 -112.391471 75 7528ft 207kts
13-Sep-17 12:21 34.735739 -112.325574 79 7527ft 204kts
13-Sep-17 12:22 34.759646 -112.264037 60 7522ft 208kts
13-Sep-17 12:23 34.790185 -112.204255 60 7515ft 210kts
13-Sep-17 12:24 34.819129 -112.146255 59 7236ft 193kts
13-Sep-17 12:25 34.832991 -112.084237 98 6941ft 194kts
13-Sep-17 12:26 34.825628 -112.019800 99 6655ft 195kts
13-Sep-17 12:27 34.818616 -111.956725 94 6335ft 185kts
13-Sep-17 12:28 34.818639 -111.893981 59 6028ft 190kts
13-Sep-17 12:29 34.845368 -111.851517 50 6052ft 151kts
13-Sep-17 12:30 34.871776 -111.812759 40 6001ft 143kts
13-Sep-17 12:31 34.893805 -111.782820 57 5733ft 143kts
13-Sep-17 12:32 34.877762 -111.753862 208 5282ft 116kts
13-Sep-17 12:33 34.853429 -111.782365 228 4774ft 95kts
13-Sep-17 12:34 34.846482 -111.791936 316 4756ft 0kts
13-Sep-17 12:35 34.847957 -111.790467 45 4756ft 7kts
13-Sep-17 12:36 34.849171 -111.789771 135 4756ft 0kts
13-Sep-17 12:37 34.849334 -111.789868 223 4756ft 0kts
13-Sep-17 12:38 34.849371 -111.789832 206 4756ft 2kts
13-Sep-17 12:39 34.849449 -111.789833 153 4756ft 0kts
13-Sep-17 12:40 34.849537 -111.789888 134 4756ft 0kts

Navigation Log

Ident Type
Flight plan parsing failed, navigation log unavailable